Pagrindinis puslapis
METAR-TAF:

METAR-TAF

Oro uostai :

Winter Haven's Gilbert Airport

Winter Haven, Florida, Jungtinės Amerikos Valstijos

platuma: 28-03-38N, ilguma: 081-45-27W, Aukštis: 44 m

Dabartinis oras

Ataskaita buvo paskelbta 28 minutes, ne 17:53 UTC
Vėjas 7 kt iš Vakarų/Šiaurės Vakarų
Temperatūra 30°C
Drėgmė 55%
Slėgis 1014 hPa
Matomumas: 16.1 km
Išsisklaidę debesys ne aukštis 3500 ft
Su prošvaistėmis ne aukštis 4600 ft

METAR: KGIF 171753Z AUTO 29007KT 10SM SCT035 BKN046 30/20 A2993 RMK AO2 SLP133 T03000200 10306 20233 58015

Laikas: 14:21 (18:21 UTC)


TAF: trūkstamas

Orai ataskaitas ir orų prognozės (METAR, TAF).

turimą stotys yra geltonos ir raudonos taškus žemėlapyje.

Perkelti pele per norėdami pamatyti stoties vardą.

Tada spustelėkite, norėdami matyti oro stebėjimo ir prognozės.

Norėdami pakeisti žemėlapį: spustelėkite ant žalios mygtukų su juodo kryžiaus žemyn,; žalią mygtuką su brūkšneliu, jei norite nutolinti; arba žalių rodyklių gretimoms žemėlapius.


METAR-TAF: